^^
Datos históricos de la estación: Murcia-Puente Tocinos
 
Diario Informe para Noviembre 23, 2017 Unidades:  Métrico    Inglés   Ambas
« Anterior Día
Siguiente Día »
Diario Semanal Mensual Anual Configurable
  Actual: Máximo: Mínimo: Media:
Temperatura: 24.1 °C 24.1 °C 7.1 °C 12.3 °C
Punto de rocio: 0.4 °C 7.3 °C -0.3 °C 2.7 °C
Humedad: 21% 79% 21% 57%
Velocidad viento: 3.9km/h 10.0km/h 3.2km/h 6.7km/h
Racha viento: 7.4km/h 16.1km/h - -
VientoSouth - - Sur
Presión: 1016.5 hPa 1018.8 hPa 1014.8 hPa -
Precipitación: 0.0 mm      
Historical Graphs
 
 
Tabla de datos para Noviembre 23, 2017
Hora Temperatura Punto de rocio Presión Viento Velocidad viento Racha viento Humedad Intensidad lluvia(por hora) Nubes
00:01 11.4 °C 7.3 °C 1014.8 hPa SSW 8.7 km/h 11.1 km/h 76% 0.0 mm CLR
00:11 11.4 °C 7.1 °C 1015.1 hPa South 7.6 km/h 12.2 km/h 75% 0.0 mm CLR
00:16 11.5 °C 7.0 °C 1015.1 hPa SSW 7.6 km/h 14.8 km/h 74% 0.0 mm CLR
00:21 11.6 °C 7.1 °C 1015.1 hPa South 8.7 km/h 14.8 km/h 74% 0.0 mm CLR
00:26 11.5 °C 7.0 °C 1015.1 hPa SSW 8.7 km/h 11.1 km/h 74% 0.0 mm CLR
00:31 11.4 °C 6.9 °C 1015.1 hPa South 8.7 km/h 9.5 km/h 74% 0.0 mm CLR
00:36 11.3 °C 6.8 °C 1015.1 hPa WSW 8.7 km/h 8.7 km/h 74% 0.0 mm CLR
00:46 11.2 °C 6.9 °C 1014.8 hPa SW 5.0 km/h 7.6 km/h 75% 0.0 mm CLR
00:56 10.9 °C 6.1 °C 1014.8 hPa SW 3.9 km/h 9.5 km/h 72% 0.0 mm CLR
01:06 10.9 °C 5.0 °C 1014.8 hPa SSW 6.9 km/h 6.9 km/h 67% 0.0 mm CLR
01:11 10.9 °C 4.3 °C 1014.8 hPa SSW 5.0 km/h 7.4 km/h 64% 0.0 mm CLR
01:16 11.1 °C 4.8 °C 1014.8 hPa SW 5.0 km/h 7.4 km/h 65% 0.0 mm CLR
01:27 10.8 °C 5.6 °C 1014.8 hPa SSE 3.9 km/h 7.4 km/h 70% 0.0 mm CLR
01:32 10.4 °C 5.6 °C 1014.8 hPa SE 4.7 km/h 9.3 km/h 72% 0.0 mm CLR
01:37 9.9 °C 5.5 °C 1015.1 hPa South 4.7 km/h 7.4 km/h 74% 0.0 mm CLR
01:42 9.7 °C 5.3 °C 1015.1 hPa SSE 6.4 km/h 10.0 km/h 74% 0.0 mm CLR
01:52 9.5 °C 4.9 °C 1014.8 hPa SSE 7.6 km/h 13.0 km/h 73% 0.0 mm CLR
01:57 9.3 °C 4.9 °C 1014.8 hPa SW 7.6 km/h 9.3 km/h 74% 0.0 mm CLR
02:02 9.2 °C 4.8 °C 1014.8 hPa South 8.4 km/h 8.4 km/h 74% 0.0 mm CLR
02:07 9.2 °C 4.6 °C 1015.1 hPa South 8.4 km/h 8.4 km/h 73% 0.0 mm CLR
02:12 9.4 °C 4.4 °C 1015.1 hPa SSW 5.8 km/h 7.4 km/h 71% 0.0 mm CLR
02:17 9.5 °C 4.3 °C 1015.1 hPa SSW 5.8 km/h 7.6 km/h 70% 0.0 mm CLR
02:22 9.7 °C 4.1 °C 1015.1 hPa SSW 5.0 km/h 9.3 km/h 68% 0.0 mm CLR
02:32 9.8 °C 4.2 °C 1015.1 hPa SW 5.8 km/h 7.4 km/h 68% 0.0 mm CLR
02:37 9.8 °C 4.4 °C 1015.1 hPa SSE 5.8 km/h 7.4 km/h 69% 0.0 mm CLR
02:42 9.7 °C 4.3 °C 1015.1 hPa SSW 4.7 km/h 7.6 km/h 69% 0.0 mm CLR
02:47 9.7 °C 4.1 °C 1015.1 hPa SSW 4.7 km/h 9.3 km/h 68% 0.0 mm CLR
02:57 9.7 °C 3.9 °C 1015.1 hPa SW 5.8 km/h 7.6 km/h 67% 0.0 mm CLR
03:02 9.7 °C 3.9 °C 1015.1 hPa SW 5.0 km/h 7.4 km/h 67% 0.0 mm CLR
03:07 9.6 °C 3.6 °C 1015.1 hPa SSE 5.0 km/h 7.4 km/h 66% 0.0 mm CLR
03:17 9.3 °C 3.9 °C 1015.1 hPa SE 3.9 km/h 7.6 km/h 69% 0.0 mm CLR
03:22 9.1 °C 3.9 °C 1015.1 hPa SSE 4.7 km/h 8.7 km/h 70% 0.0 mm CLR
03:27 8.9 °C 4.1 °C 1015.1 hPa SSW 4.7 km/h 9.3 km/h 72% 0.0 mm CLR
03:32 8.7 °C 3.7 °C 1015.1 hPa SSW 6.4 km/h 11.1 km/h 71% 0.0 mm CLR
03:42 8.8 °C 4.0 °C 1015.1 hPa SW 7.6 km/h 9.3 km/h 72% 0.0 mm CLR
04:02 8.8 °C 4.0 °C 1015.1 hPa SW 5.8 km/h 7.4 km/h 72% 0.0 mm CLR
04:07 8.8 °C 4.0 °C 1015.5 hPa SW 5.8 km/h 5.8 km/h 72% 0.0 mm CLR
04:13 8.8 °C 4.0 °C 1015.5 hPa SSW 3.2 km/h 5.8 km/h 72% 0.0 mm CLR
04:18 8.8 °C 4.2 °C 1015.5 hPa SE 3.2 km/h 7.4 km/h 73% 0.0 mm CLR
04:19 8.9 °C 4.3 °C 1015.5 hPa SE 3.9 km/h 7.4 km/h 73% 0.0 mm CLR
04:21 8.9 °C 4.3 °C 1015.5 hPa SSE 3.9 km/h 9.5 km/h 73% 0.0 mm CLR
04:23 8.8 °C 4.2 °C 1015.5 hPa SSE 3.9 km/h 11.1 km/h 73% 0.0 mm CLR
04:26 8.4 °C 4.2 °C 1015.5 hPa SSE 3.9 km/h 11.1 km/h 75% 0.0 mm CLR
04:32 7.8 °C 4.0 °C 1015.5 hPa South 8.4 km/h 11.9 km/h 77% 0.0 mm CLR
04:37 7.5 °C 3.9 °C 1015.1 hPa South 8.4 km/h 10.0 km/h 78% 0.0 mm CLR
04:42 7.4 °C 3.8 °C 1015.1 hPa South 8.7 km/h 9.3 km/h 78% 0.0 mm CLR
04:47 7.4 °C 4.0 °C 1015.1 hPa South 8.7 km/h 9.3 km/h 79% 0.0 mm CLR
04:52 7.4 °C 3.8 °C 1015.5 hPa South 6.9 km/h 11.1 km/h 78% 0.0 mm CLR
04:57 7.6 °C 4.0 °C 1015.5 hPa South 6.9 km/h 7.6 km/h 78% 0.0 mm CLR
05:02 7.6 °C 4.0 °C 1015.5 hPa South 6.4 km/h 9.3 km/h 78% 0.0 mm CLR
05:07 7.7 °C 3.9 °C 1015.5 hPa SSE 6.4 km/h 6.4 km/h 77% 0.0 mm CLR
05:12 7.7 °C 3.9 °C 1015.5 hPa SE 5.0 km/h 9.3 km/h 77% 0.0 mm CLR
05:17 7.7 °C 3.9 °C 1015.5 hPa SE 5.0 km/h 7.4 km/h 77% 0.0 mm CLR
05:22 7.6 °C 3.8 °C 1015.5 hPa SE 5.8 km/h 11.1 km/h 77% 0.0 mm CLR
05:27 7.3 °C 3.6 °C 1015.5 hPa SE 5.8 km/h 13.0 km/h 77% 0.0 mm CLR
05:32 7.2 °C 3.4 °C 1015.5 hPa South 7.6 km/h 11.1 km/h 77% 0.0 mm CLR
05:37 7.2 °C 3.4 °C 1015.5 hPa SE 7.6 km/h 9.3 km/h 77% 0.0 mm CLR
05:42 7.2 °C 3.4 °C 1015.5 hPa South 7.6 km/h 7.6 km/h 77% 0.0 mm CLR
05:52 7.3 °C 3.3 °C 1015.8 hPa South 6.4 km/h 9.3 km/h 76% 0.0 mm CLR
05:57 7.4 °C 3.3 °C 1015.8 hPa South 6.4 km/h 9.3 km/h 75% 0.0 mm CLR
06:07 7.6 °C 3.3 °C 1015.8 hPa SSE 6.9 km/h 10.0 km/h 74% 0.0 mm CLR
06:12 7.7 °C 3.3 °C 1015.8 hPa SSE 7.6 km/h 13.0 km/h 74% 0.0 mm CLR
06:17 7.6 °C 3.1 °C 1015.8 hPa SSE 7.6 km/h 13.0 km/h 73% 0.0 mm CLR
06:22 7.6 °C 3.1 °C 1015.8 hPa SSE 8.7 km/h 11.1 km/h 73% 0.0 mm CLR
06:27 7.6 °C 3.1 °C 1015.8 hPa South 8.7 km/h 13.0 km/h 73% 0.0 mm CLR
06:32 7.6 °C 3.1 °C 1015.8 hPa South 8.4 km/h 11.1 km/h 73% 0.0 mm CLR
06:42 7.7 °C 2.9 °C 1016.1 hPa SSW 8.4 km/h 9.3 km/h 72% 0.0 mm CLR
06:47 7.9 °C 2.9 °C 1016.1 hPa SW 8.4 km/h 13.0 km/h 71% 0.0 mm CLR
06:52 8.1 °C 2.9 °C 1016.1 hPa South 8.7 km/h 9.3 km/h 70% 0.0 mm CLR
07:02 8.3 °C 2.7 °C 1016.1 hPa SSW 8.4 km/h 9.3 km/h 68% 0.0 mm CLR
07:07 8.3 °C 2.7 °C 1016.5 hPa South 8.4 km/h 8.4 km/h 68% 0.0 mm CLR
07:12 8.4 °C 2.6 °C 1016.5 hPa SSW 6.4 km/h 7.4 km/h 67% 0.0 mm CLR
07:17 8.4 °C 2.6 °C 1016.5 hPa South 6.4 km/h 7.4 km/h 67% 0.0 mm CLR
07:22 8.3 °C 2.9 °C 1016.5 hPa SE 4.7 km/h 7.4 km/h 69% 0.0 mm CLR
07:27 8.0 °C 3.1 °C 1016.5 hPa South 4.7 km/h 7.4 km/h 71% 0.0 mm CLR
07:32 7.7 °C 3.2 °C 1016.5 hPa SSW 5.0 km/h 7.4 km/h 73% 0.0 mm CLR
07:37 7.5 °C 3.2 °C 1016.8 hPa SSW 5.0 km/h 5.8 km/h 74% 0.0 mm CLR
07:42 7.5 °C 3.2 °C 1016.8 hPa South 4.7 km/h 7.4 km/h 74% 0.0 mm CLR
07:47 7.4 °C 3.1 °C 1016.8 hPa South 4.7 km/h 11.1 km/h 74% 0.0 mm CLR
07:52 7.3 °C 2.9 °C 1017.2 hPa SE 6.4 km/h 11.1 km/h 74% 0.0 mm CLR
07:57 7.2 °C 3.1 °C 1017.2 hPa SSE 6.4 km/h 11.1 km/h 75% 0.0 mm CLR
08:07 7.1 °C 2.9 °C 1017.2 hPa SW 7.6 km/h 13.0 km/h 75% 0.0 mm CLR
08:12 7.1 °C 2.8 °C 1017.2 hPa South 7.6 km/h 11.1 km/h 74% 0.0 mm CLR
08:22 7.4 °C 2.5 °C 1017.5 hPa SSW 8.4 km/h 11.1 km/h 71% 0.0 mm CLR
08:27 7.6 °C 2.3 °C 1017.5 hPa SSW 8.4 km/h 11.1 km/h 69% 0.0 mm CLR
08:37 8.1 °C 2.3 °C 1017.8 hPa South 8.4 km/h 9.3 km/h 67% 0.0 mm CLR
08:42 8.2 °C 2.2 °C 1017.8 hPa SSW 7.6 km/h 9.3 km/h 66% 0.0 mm CLR
08:47 8.3 °C 2.1 °C 1017.8 hPa SSW 7.6 km/h 7.6 km/h 65% 0.0 mm CLR
08:57 8.8 °C 2.3 °C 1017.8 hPa SSE 5.8 km/h 7.4 km/h 64% 0.0 mm CLR
09:07 9.2 °C 2.1 °C 1017.8 hPa SSE 5.8 km/h 8.7 km/h 61% 0.0 mm CLR
09:12 9.4 °C 2.0 °C 1017.8 hPa SSE 5.0 km/h 9.3 km/h 60% 0.0 mm CLR
09:22 9.7 °C 1.8 °C 1018.2 hPa South 6.4 km/h 13.0 km/h 58% 0.0 mm CLR
09:32 10.0 °C 2.3 °C 1018.2 hPa South 8.4 km/h 9.3 km/h 59% 0.0 mm CLR
09:42 10.3 °C 1.9 °C 1018.2 hPa SSW 7.6 km/h 13.0 km/h 56% 0.0 mm CLR
09:47 10.6 °C 1.7 °C 1018.2 hPa South 7.6 km/h 11.1 km/h 54% 0.0 mm CLR
09:52 10.9 °C 1.9 °C 1018.5 hPa South 8.7 km/h 11.1 km/h 54% 0.0 mm CLR
09:57 11.2 °C 1.9 °C 1018.5 hPa South 8.7 km/h 9.3 km/h 53% 0.0 mm CLR
10:02 11.4 °C 1.6 °C 1018.5 hPa South 6.9 km/h 9.3 km/h 51% 0.0 mm CLR
10:07 11.7 °C 1.3 °C 1018.5 hPa SW 6.9 km/h 9.3 km/h 49% 0.0 mm CLR
10:12 11.9 °C 1.5 °C 1018.5 hPa South 6.4 km/h 7.4 km/h 49% 0.0 mm CLR
10:17 12.2 °C 1.5 °C 1018.5 hPa South 6.4 km/h 9.3 km/h 48% 0.0 mm CLR
10:22 12.6 °C 1.6 °C 1018.5 hPa South 5.8 km/h 9.3 km/h 47% 0.0 mm CLR
10:32 13.0 °C 1.9 °C 1018.5 hPa South 6.4 km/h 7.4 km/h 47% 0.0 mm CLR
10:37 13.2 °C 1.8 °C 1018.5 hPa SSW 6.4 km/h 7.4 km/h 46% 0.0 mm CLR
10:42 13.3 °C 1.3 °C 1018.5 hPa WSW 5.8 km/h 11.1 km/h 44% 0.0 mm CLR
10:47 13.4 °C 1.4 °C 1018.5 hPa South 5.8 km/h 9.3 km/h 44% 0.0 mm CLR
10:52 13.6 °C 1.2 °C 1018.8 hPa WSW 6.4 km/h 9.3 km/h 43% 0.0 mm CLR
11:02 14.0 °C 0.9 °C 1018.8 hPa West 7.6 km/h 10.0 km/h 41% 0.0 mm CLR
11:07 14.4 °C 0.2 °C 1018.8 hPa WSW 7.6 km/h 11.1 km/h 38% 0.0 mm CLR
11:12 14.7 °C 0.5 °C 1018.8 hPa WSW 8.4 km/h 9.5 km/h 38% 0.0 mm CLR
11:17 14.9 °C 0.3 °C 1018.8 hPa SW 8.4 km/h 13.0 km/h 37% 0.0 mm CLR
11:22 15.1 °C 0.5 °C 1018.8 hPa SSW 6.9 km/h 9.5 km/h 37% 0.0 mm CLR
11:27 15.3 °C 0.3 °C 1018.8 hPa South 6.9 km/h 7.4 km/h 36% 0.0 mm CLR
11:32 15.7 °C 0.3 °C 1018.8 hPa SSE 6.4 km/h 11.1 km/h 35% 0.0 mm CLR
11:37 15.9 °C 0.8 °C 1018.8 hPa South 6.4 km/h 11.1 km/h 36% 0.0 mm CLR
11:42 16.2 °C 0.7 °C 1018.8 hPa South 8.4 km/h 9.5 km/h 35% 0.0 mm CLR
11:48 16.4 °C 0.5 °C 1018.8 hPa SSW 8.4 km/h 13.0 km/h 34% 0.0 mm CLR
11:53 16.5 °C 0.9 °C 1018.5 hPa SSE 8.7 km/h 13.0 km/h 35% 0.0 mm CLR
11:58 16.4 °C 1.7 °C 1018.5 hPa SE 8.7 km/h 9.5 km/h 37% 0.0 mm CLR
12:03 16.6 °C 2.2 °C 1018.5 hPa SSE 8.7 km/h 11.1 km/h 38% 0.0 mm CLR
12:08 16.6 °C 2.2 °C 1018.5 hPa SE 8.7 km/h 16.1 km/h 38% 0.0 mm CLR
12:28 17.2 °C 1.6 °C 1018.2 hPa SW 10.0 km/h 13.0 km/h 35% 0.0 mm CLR
12:38 17.6 °C 0.7 °C 1018.2 hPa South 9.5 km/h 11.1 km/h 32% 0.0 mm CLR
12:43 17.9 °C 0.1 °C 1018.2 hPa SSE 10.0 km/h 13.0 km/h 30% 0.0 mm CLR
12:48 18.3 °C 0.4 °C 1018.2 hPa SSW 10.0 km/h 13.0 km/h 30% 0.0 mm CLR
12:53 18.6 °C -0.3 °C 1017.8 hPa SW 9.5 km/h 13.0 km/h 28% 0.0 mm CLR
12:58 18.8 °C 0.4 °C 1017.8 hPa SSE 9.5 km/h 9.5 km/h 29% 0.0 mm CLR
13:13 19.4 °C 0.4 °C 1017.5 hPa SSW 7.6 km/h 11.1 km/h 28% 0.0 mm CLR
13:18 19.6 °C 0.1 °C 1017.5 hPa South 6.9 km/h 9.3 km/h 27% 0.0 mm CLR
13:23 19.7 °C 0.7 °C 1017.5 hPa South 6.9 km/h 7.4 km/h 28% 0.0 mm CLR
13:38 20.4 °C 0.2 °C 1017.2 hPa SSE 7.6 km/h 11.1 km/h 26% 0.0 mm CLR
13:53 21.2 °C 0.9 °C 1016.8 hPa South 6.9 km/h 9.3 km/h 26% 0.0 mm CLR
13:58 21.6 °C 1.3 °C 1016.8 hPa SSW 5.8 km/h 7.6 km/h 26% 0.0 mm CLR
14:03 21.8 °C 0.9 °C 1016.8 hPa SW 5.8 km/h 7.4 km/h 25% 0.0 mm CLR
14:08 21.9 °C 0.9 °C 1016.8 hPa SW 5.0 km/h 9.3 km/h 25% 0.0 mm CLR
14:13 22.1 °C 1.1 °C 1016.8 hPa SSW 5.0 km/h 9.3 km/h 25% 0.0 mm CLR
14:18 22.1 °C 0.6 °C 1016.8 hPa WSW 5.8 km/h 9.3 km/h 24% 0.0 mm CLR
14:28 22.2 °C 0.7 °C 1016.8 hPa SW 6.4 km/h 7.4 km/h 24% 0.0 mm CLR
14:38 22.5 °C 0.3 °C 1016.5 hPa SSW 5.8 km/h 9.3 km/h 23% 0.0 mm CLR
14:48 22.8 °C -0.1 °C 1016.5 hPa SSW 6.4 km/h 9.3 km/h 22% 0.0 mm CLR
14:53 22.9 °C 0.1 °C 1016.5 hPa SSW 6.4 km/h 11.1 km/h 22% 0.0 mm CLR
15:03 23.1 °C 0.8 °C 1016.5 hPa South 6.9 km/h 9.3 km/h 23% 0.0 mm CLR
15:08 23.2 °C -0.3 °C 1016.5 hPa SSW 6.4 km/h 9.3 km/h 21% 0.0 mm CLR
15:13 23.3 °C 0.4 °C 1016.5 hPa SSW 6.4 km/h 8.7 km/h 22% 0.0 mm CLR
15:18 23.3 °C -0.3 °C 1016.5 hPa SW 6.9 km/h 9.5 km/h 21% 0.0 mm CLR
15:23 23.4 °C 0.4 °C 1016.5 hPa SSW 6.9 km/h 9.3 km/h 22% 0.0 mm CLR
15:28 23.5 °C -0.1 °C 1016.5 hPa South 6.4 km/h 11.1 km/h 21% 0.0 mm CLR
15:33 23.6 °C 0.6 °C 1016.5 hPa SSE 6.4 km/h 7.4 km/h 22% 0.0 mm CLR
15:38 23.7 °C 0.7 °C 1016.5 hPa South 6.4 km/h 6.4 km/h 22% 0.0 mm CLR
15:43 23.8 °C 0.2 °C 1016.5 hPa South 6.4 km/h 7.4 km/h 21% 0.0 mm CLR
15:48 24.1 °C 0.4 °C 1016.5 hPa SE 3.9 km/h 7.4 km/h 21% 0.0 mm CLR
15:53 24.1 °C 0.4 °C 1016.5 hPa South 3.9 km/h 7.4 km/h 21% 0.0 mm CLR
Murcia-Puente Tocinos, España
Compliments of Weather Underground - 2 mb

La estación de MeteoMurcia.com, publica sus datos en los siguientes proyectos:

Meteoclimatic www.awekas.at

W3Counter
Web Analytics